»·PEaware :: N944XS KOXR-MMTJ

N944XS :: KOXR-MMTJ

FLIGHT INFORMATION

Flight Status: Arrived
Operator: Privately registered:
United States
More flights under this callsign
Pilot: Alan J. (5709)
Aircraft: MITSUBISHI MU-2 MARQUISE
(MU2)
More flights by this aircraft type
Origin: KOXR Oxnard
United States
Destination: MMTJ Gen Abelardo L Rodriguez Intl
Mexico
More flights between these airports :: More routes between these airports
Route: +VTU V208 SXC V208 LAX118R CARDI MZB320R MZB
File this flight plan on PilotEdge
Remarks:
Altitude:
(Current/Filed)
9,000ft
Speed:
(Current/Filed)
270kts
Departed: 21-Mar-18 01:35 PM
Arrived: 21-Mar-18 02:28 PM
Distance/Time
Traveled:
149nm/0:53
Distance/Time
To Go:
Arrived

Flight Plot

Page will automatically refresh every two minutes.

Flight plan parsing failed; only flown route is shown


Map Options




Map Legend


Flown Route
Filed Route
Departure Airport
Arrival Airport
Navaid (VOR, NDB)
Fix

Horizontal Profiles

Position Reports

Time Latitude Longitude Heading Altitude Ground
Speed
21-Mar-18 13:20 34.198814 -119.198488 0 46ft 0kts
21-Mar-18 13:21 34.198814 -119.198488 0 46ft 0kts
21-Mar-18 13:22 34.198814 -119.198488 0 46ft 0kts
21-Mar-18 13:23 34.198814 -119.198488 0 46ft 0kts
21-Mar-18 13:24 34.198814 -119.198488 0 46ft 0kts
21-Mar-18 13:25 34.198814 -119.198488 0 46ft 0kts
21-Mar-18 13:26 34.198814 -119.198488 0 46ft 0kts
21-Mar-18 13:27 34.198814 -119.198488 0 46ft 0kts
21-Mar-18 13:28 34.198860 -119.198486 1 46ft 1kts
21-Mar-18 13:29 34.199664 -119.198309 59 46ft 3kts
21-Mar-18 13:30 34.199954 -119.197523 8 46ft 0kts
21-Mar-18 13:31 34.199954 -119.197523 8 46ft 0kts
21-Mar-18 13:32 34.199954 -119.197523 8 46ft 0kts
21-Mar-18 13:33 34.199954 -119.197523 8 46ft 0kts
21-Mar-18 13:34 34.200769 -119.203835 270 46ft 103kts
21-Mar-18 13:35 34.210985 -119.250608 332 1452ft 167kts
21-Mar-18 13:36 34.216582 -119.306848 266 2481ft 188kts
21-Mar-18 13:37 34.185959 -119.339254 154 3193ft 174kts
21-Mar-18 13:38 34.144714 -119.320387 154 4273ft 156kts
21-Mar-18 13:39 34.107042 -119.301862 155 5851ft 134kts
21-Mar-18 13:40 34.076603 -119.274172 136 7840ft 145kts
21-Mar-18 13:41 34.045103 -119.235308 137 8993ft 202kts
21-Mar-18 13:42 33.997314 -119.176380 137 8983ft 279kts
21-Mar-18 13:43 33.940448 -119.106466 137 8968ft 293kts
21-Mar-18 13:44 33.885737 -119.036071 131 8862ft 283kts
21-Mar-18 13:45 33.835253 -118.975618 151 8991ft 239kts
21-Mar-18 13:46 33.792262 -118.926433 126 10507ft 209kts
21-Mar-18 13:47 33.750437 -118.873624 141 11009ft 232kts
21-Mar-18 13:48 33.698936 -118.811635 139 11028ft 287kts
21-Mar-18 13:49 33.641704 -118.742067 139 11036ft 296kts
21-Mar-18 13:50 33.583467 -118.671443 139 11034ft 299kts
21-Mar-18 13:51 33.525651 -118.601497 139 11031ft 293kts
21-Mar-18 13:52 33.468625 -118.532646 139 11033ft 290kts
21-Mar-18 13:53 33.411775 -118.464138 139 11033ft 289kts
21-Mar-18 13:54 33.370657 -118.383302 102 11036ft 301kts
21-Mar-18 13:55 33.357556 -118.285873 101 11029ft 301kts
21-Mar-18 13:56 33.344600 -118.187350 101 11029ft 301kts
21-Mar-18 13:57 33.331389 -118.088864 107 11044ft 298kts
21-Mar-18 13:58 33.304749 -117.995438 113 11053ft 297kts
21-Mar-18 13:59 33.277670 -117.902450 113 11049ft 297kts
21-Mar-18 14:00 33.250457 -117.809191 113 11046ft 296kts
21-Mar-18 14:01 33.223169 -117.716027 112 11020ft 300kts
21-Mar-18 14:02 33.195533 -117.621851 112 11020ft 301kts
21-Mar-18 14:03 33.168377 -117.529659 112 11018ft 301kts
21-Mar-18 14:04 33.139802 -117.435567 124 10996ft 298kts
21-Mar-18 14:05 33.072837 -117.388527 161 10766ft 274kts
21-Mar-18 14:06 33.002803 -117.366667 176 9317ft 262kts
21-Mar-18 14:07 32.928652 -117.356069 176 7461ft 274kts
21-Mar-18 14:08 32.857472 -117.347653 177 5666ft 269kts
21-Mar-18 14:09 32.784373 -117.339714 177 3743ft 262kts
21-Mar-18 14:10 32.715030 -117.332366 177 2978ft 241kts
21-Mar-18 14:11 32.647072 -117.324882 177 2981ft 252kts
21-Mar-18 14:12 32.600654 -117.274599 103 2985ft 260kts
21-Mar-18 14:13 32.582703 -117.191032 103 2985ft 262kts
21-Mar-18 14:14 32.566781 -117.107345 100 2982ft 250kts
21-Mar-18 14:15 32.553880 -117.030961 101 2982ft 223kts
21-Mar-18 14:16 32.540138 -116.962853 115 2989ft 205kts
21-Mar-18 14:17 32.508204 -116.909374 134 2986ft 196kts
21-Mar-18 14:18 32.471462 -116.862845 134 2986ft 192kts
21-Mar-18 14:19 32.435426 -116.816480 133 2987ft 190kts
21-Mar-18 14:20 32.413687 -116.765639 53 2996ft 186kts
21-Mar-18 14:21 32.456760 -116.770063 317 2993ft 174kts
21-Mar-18 14:22 32.484503 -116.811968 294 2981ft 145kts
21-Mar-18 14:23 32.500751 -116.853346 295 2558ft 128kts
21-Mar-18 14:24 32.516488 -116.885899 301 1895ft 110kts
21-Mar-18 14:25 32.532092 -116.917120 295 1275ft 112kts
21-Mar-18 14:26 32.538631 -116.951925 280 566ft 105kts
21-Mar-18 14:27 32.541179 -116.970766 281 492ft 29kts
21-Mar-18 14:28 32.542751 -116.973949 314 492ft 0kts
21-Mar-18 14:29 32.543485 -116.974082 13 492ft 7kts
21-Mar-18 14:30 32.544122 -116.976893 277 492ft 11kts
21-Mar-18 14:31 32.543762 -116.978277 285 492ft 10kts
21-Mar-18 14:32 32.544388 -116.978030 324 492ft 8kts
21-Mar-18 14:33 32.545184 -116.979204 189 492ft 2kts
21-Mar-18 14:34 32.544963 -116.979453 279 492ft 0kts
21-Mar-18 14:35 32.544963 -116.979453 279 492ft 0kts

Navigation Log

Ident Type
Flight plan parsing failed, navigation log unavailable